createdAt,value
2023-12-04T00:02:30.791Z,-0.60
2023-12-04T00:05:01.678Z,-0.58
2023-12-04T00:07:34.379Z,-0.77
2023-12-04T00:10:05.605Z,-0.77
2023-12-04T00:12:39.354Z,-0.71
2023-12-04T00:15:12.005Z,-0.87
2023-12-04T00:17:42.932Z,-1.21
2023-12-04T00:20:14.294Z,-1.54
2023-12-04T00:22:46.626Z,-1.67
2023-12-04T00:25:17.435Z,-1.71
2023-12-04T00:27:52.689Z,-1.68
2023-12-04T00:30:23.587Z,-1.63
2023-12-04T00:32:54.700Z,-1.52
2023-12-04T00:35:26.037Z,-1.39
2023-12-04T00:37:57.033Z,-1.34
2023-12-04T00:40:28.167Z,-1.41
2023-12-04T00:43:01.589Z,-1.26
2023-12-04T00:45:32.386Z,-1.20
2023-12-04T00:48:03.434Z,-1.12
2023-12-04T00:50:34.792Z,-1.10
2023-12-04T00:53:06.187Z,-0.87
2023-12-04T00:55:39.924Z,-0.77
2023-12-04T00:58:14.321Z,-0.60
2023-12-04T01:00:45.481Z,-0.48
2023-12-04T01:03:16.250Z,-0.37
2023-12-04T01:05:46.994Z,-0.29
2023-12-04T01:08:17.949Z,-0.15
2023-12-04T01:10:48.939Z,-0.05
2023-12-04T01:13:22.606Z,0.03
2023-12-04T01:15:53.409Z,0.11
2023-12-04T01:18:24.396Z,0.17
2023-12-04T01:20:55.285Z,0.20
2023-12-04T01:23:26.249Z,0.27
2023-12-04T01:25:57.085Z,0.30
2023-12-04T01:28:30.872Z,0.34
2023-12-04T01:31:01.779Z,0.37
2023-12-04T01:33:32.738Z,0.31
2023-12-04T01:36:03.586Z,0.33
2023-12-04T01:38:34.726Z,0.42
2023-12-04T01:41:06.008Z,0.32
2023-12-04T01:43:42.451Z,0.41
2023-12-04T01:46:15.133Z,0.42
2023-12-04T01:48:46.488Z,0.41
2023-12-04T01:51:18.373Z,0.37
2023-12-04T01:53:50.003Z,0.33
2023-12-04T01:56:24.635Z,0.36
2023-12-04T01:58:58.145Z,0.24
2023-12-04T02:01:29.192Z,0.34
2023-12-04T02:04:02.884Z,0.29
2023-12-04T02:06:34.137Z,0.31
2023-12-04T02:09:08.292Z,0.31
2023-12-04T02:11:40.504Z,0.27
2023-12-04T02:14:15.110Z,0.29
2023-12-04T02:16:47.613Z,0.25
2023-12-04T02:19:19.422Z,0.29
2023-12-04T02:21:50.349Z,0.29
2023-12-04T02:24:24.098Z,0.30
2023-12-04T02:26:59.191Z,0.27
2023-12-04T02:29:35.848Z,0.21
2023-12-04T02:32:08.594Z,0.31
2023-12-04T02:34:40.765Z,0.32
2023-12-04T02:37:13.030Z,0.28
2023-12-04T02:39:47.023Z,0.30
2023-12-04T02:42:18.587Z,0.31
2023-12-04T02:44:49.918Z,0.32
2023-12-04T02:47:21.102Z,0.31
2023-12-04T02:49:52.040Z,0.34
2023-12-04T02:52:22.831Z,0.19
2023-12-04T02:54:56.622Z,0.33
2023-12-04T02:57:27.396Z,0.28
2023-12-04T02:59:58.299Z,0.31
2023-12-04T03:02:29.486Z,0.29
2023-12-04T03:05:00.266Z,0.27
2023-12-04T03:07:31.161Z,0.19
2023-12-04T03:10:04.995Z,0.09
2023-12-04T03:12:35.949Z,0.18
2023-12-04T03:15:07.449Z,0.15
2023-12-04T03:17:38.517Z,0.16
2023-12-04T03:20:10.202Z,0.12
2023-12-04T03:22:41.499Z,0.08
2023-12-04T03:25:15.663Z,-0.04
2023-12-04T03:27:46.510Z,0.11
2023-12-04T03:30:18.317Z,0.10
2023-12-04T03:32:49.151Z,0.09
2023-12-04T03:35:20.316Z,0.09
2023-12-04T03:37:51.358Z,0.07
2023-12-04T03:40:24.845Z,0.01
2023-12-04T03:42:56.333Z,0.01
2023-12-04T03:45:27.330Z,0.04
2023-12-04T03:47:58.203Z,0.04
2023-12-04T03:50:29.019Z,0.01
2023-12-04T03:53:00.135Z,0.01
2023-12-04T03:55:34.162Z,-0.01
2023-12-04T03:58:04.970Z,0.05
2023-12-04T04:00:39.641Z,0.05
2023-12-04T04:03:11.093Z,0.06
2023-12-04T04:05:41.897Z,0.07
2023-12-04T04:08:13.021Z,0.06
2023-12-04T04:10:47.109Z,-0.01
2023-12-04T04:13:18.019Z,0.07
2023-12-04T04:15:48.995Z,0.07
2023-12-04T04:18:19.900Z,0.05
2023-12-04T04:20:51.169Z,0.10
2023-12-04T04:23:22.142Z,0.13
2023-12-04T04:25:55.679Z,0.11
2023-12-04T04:28:26.648Z,0.16
2023-12-04T04:30:57.348Z,0.08
2023-12-04T04:33:28.329Z,0.12
2023-12-04T04:35:59.737Z,0.18
2023-12-04T04:38:30.903Z,0.16
2023-12-04T04:41:04.601Z,0.11
2023-12-04T04:43:35.650Z,0.21
2023-12-04T04:46:06.694Z,0.20
2023-12-04T04:48:37.696Z,0.20
2023-12-04T04:51:09.276Z,0.09
2023-12-04T04:53:40.081Z,0.20
2023-12-04T04:56:15.127Z,0.19
2023-12-04T04:58:45.909Z,0.22
2023-12-04T05:01:24.007Z,0.05
2023-12-04T05:03:55.908Z,-0.45
2023-12-04T05:06:26.925Z,-0.99
2023-12-04T05:08:58.369Z,-1.50
2023-12-04T05:11:31.767Z,-1.86
2023-12-04T05:14:02.658Z,-2.10
2023-12-04T05:16:33.656Z,-2.07
2023-12-04T05:19:04.820Z,-1.91
2023-12-04T05:21:35.714Z,-1.78
2023-12-04T05:24:06.573Z,-1.77
2023-12-04T05:26:40.252Z,-1.76
2023-12-04T05:29:11.290Z,-1.83
2023-12-04T05:31:42.033Z,-1.71
2023-12-04T05:34:14.050Z,-1.64
2023-12-04T05:36:44.865Z,-1.57
2023-12-04T05:39:15.842Z,-1.44
2023-12-04T05:41:49.450Z,-1.34
2023-12-04T05:44:20.232Z,-1.22
2023-12-04T05:46:51.166Z,-1.12
2023-12-04T05:49:22.164Z,-1.00
2023-12-04T05:51:53.275Z,-0.91
2023-12-04T05:54:24.136Z,-0.81
2023-12-04T05:56:57.604Z,-0.72
2023-12-04T05:59:28.378Z,-0.67
2023-12-04T06:01:59.219Z,-0.59
2023-12-04T06:04:30.217Z,-0.52
2023-12-04T06:06:58.490Z,-0.46
2023-12-04T06:09:29.540Z,-0.41
2023-12-04T06:12:09.726Z,-0.48
2023-12-04T06:14:41.039Z,-0.30
2023-12-04T06:17:11.830Z,-0.27
2023-12-04T06:19:42.842Z,-0.26
2023-12-04T06:22:14.384Z,-0.20
2023-12-04T06:24:46.268Z,-0.14
2023-12-04T06:27:22.768Z,-0.09
2023-12-04T06:29:54.225Z,-0.18
2023-12-04T06:32:25.864Z,0.01
2023-12-04T06:34:58.202Z,0.05
2023-12-04T06:37:29.710Z,0.07
2023-12-04T06:40:04.612Z,0.09
2023-12-04T06:42:39.325Z,0.10
2023-12-04T06:45:11.732Z,0.12
2023-12-04T06:47:47.522Z,0.11
2023-12-04T06:50:18.318Z,0.17
2023-12-04T06:52:49.182Z,0.18
2023-12-04T06:55:19.964Z,0.28
2023-12-04T06:57:53.999Z,0.35
2023-12-04T07:00:28.115Z,0.38
2023-12-04T07:02:58.907Z,0.51
2023-12-04T07:05:29.692Z,0.61
2023-12-04T07:08:00.478Z,0.73
2023-12-04T07:10:35.311Z,0.77
2023-12-04T07:13:10.716Z,0.82
2023-12-04T07:15:41.672Z,0.90
2023-12-04T07:18:12.619Z,0.94
2023-12-04T07:20:43.644Z,1.04
2023-12-04T07:23:15.063Z,1.07
2023-12-04T07:25:47.771Z,1.11
2023-12-04T07:28:21.694Z,1.14
2023-12-04T07:30:52.641Z,1.29
2023-12-04T07:33:23.617Z,1.30
2023-12-04T07:35:55.424Z,1.49
2023-12-04T07:38:29.327Z,1.61
2023-12-04T07:41:00.228Z,1.72
2023-12-04T07:43:33.854Z,1.82
2023-12-04T07:46:05.143Z,1.88
2023-12-04T07:48:36.468Z,1.99
2023-12-04T07:51:08.701Z,2.08
2023-12-04T07:53:39.568Z,2.10
2023-12-04T07:56:11.524Z,2.15
2023-12-04T07:58:45.016Z,2.11
2023-12-04T08:01:16.310Z,2.19
2023-12-04T08:03:47.687Z,2.25
2023-12-04T08:06:20.512Z,2.28
2023-12-04T08:08:51.352Z,2.35
2023-12-04T08:11:22.375Z,2.43
2023-12-04T08:13:56.203Z,2.51
2023-12-04T08:16:29.273Z,2.61
2023-12-04T08:19:00.560Z,2.73
2023-12-04T08:21:31.441Z,2.80
2023-12-04T08:24:02.946Z,2.82
2023-12-04T08:26:33.785Z,2.95
2023-12-04T08:29:07.445Z,2.97
2023-12-04T08:31:38.159Z,2.91
2023-12-04T08:34:09.193Z,2.93
2023-12-04T08:36:45.501Z,2.87
2023-12-04T08:42:28.438Z,2.78
2023-12-04T08:45:02.641Z,2.74
2023-12-04T08:47:35.383Z,2.70
2023-12-04T08:50:06.659Z,2.68
2023-12-04T08:52:37.529Z,2.68
2023-12-04T08:55:10.649Z,2.70
2023-12-04T08:57:41.573Z,2.72
2023-12-04T09:00:17.060Z,2.74
2023-12-04T09:02:53.545Z,2.77
2023-12-04T09:05:29.743Z,2.80
2023-12-04T09:08:30.372Z,2.86
2023-12-04T09:11:03.853Z,2.87
2023-12-04T09:13:43.334Z,2.93
2023-12-04T09:16:18.139Z,2.93
2023-12-04T09:18:49.326Z,3.00
2023-12-04T09:21:20.151Z,2.95
2023-12-04T09:23:51.472Z,3.04
2023-12-04T09:26:22.666Z,3.06
2023-12-04T09:28:53.531Z,3.07
2023-12-04T09:31:27.702Z,3.09
2023-12-04T09:33:58.642Z,3.09
2023-12-04T09:36:29.523Z,3.09
2023-12-04T09:39:00.361Z,3.07
2023-12-04T09:41:32.053Z,3.08
2023-12-04T09:44:03.172Z,3.04
2023-12-04T09:46:37.948Z,3.07
2023-12-04T09:49:10.018Z,3.08
2023-12-04T09:51:42.633Z,3.07
2023-12-04T09:54:14.220Z,3.01
2023-12-04T09:56:45.233Z,2.99
2023-12-04T09:59:19.198Z,3.11
2023-12-04T10:01:54.576Z,2.98
2023-12-04T10:04:26.130Z,3.11
2023-12-04T10:06:57.346Z,3.07
2023-12-04T10:09:28.302Z,2.97
2023-12-04T10:12:01.277Z,3.04
2023-12-04T10:14:32.365Z,3.05
2023-12-04T10:17:19.631Z,3.08
2023-12-04T10:19:50.492Z,3.13
2023-12-04T10:22:21.302Z,3.18
2023-12-04T10:24:52.132Z,3.10
2023-12-04T10:27:23.264Z,3.16
2023-12-04T10:29:55.613Z,3.27
2023-12-04T10:32:29.137Z,3.36
2023-12-04T10:35:02.105Z,3.40
2023-12-04T10:37:34.855Z,3.57
2023-12-04T10:40:10.107Z,3.67
2023-12-04T10:42:40.957Z,3.70
2023-12-04T10:45:12.967Z,3.87
2023-12-04T10:47:48.805Z,3.83
2023-12-04T10:50:20.146Z,3.91
2023-12-04T10:52:54.139Z,3.93
2023-12-04T10:55:26.164Z,3.97
2023-12-04T10:57:59.405Z,4.04
2023-12-04T11:00:32.713Z,4.11
2023-12-04T11:03:09.623Z,4.19
2023-12-04T11:05:43.569Z,4.26
2023-12-04T11:08:20.995Z,4.37
2023-12-04T11:10:59.235Z,4.39
2023-12-04T11:13:34.143Z,4.52
2023-12-04T11:16:07.102Z,4.54
2023-12-04T11:18:42.546Z,4.55
2023-12-04T11:21:13.819Z,4.67
2023-12-04T11:23:44.616Z,4.72
2023-12-04T11:26:16.853Z,4.65
2023-12-04T11:28:49.619Z,4.80
2023-12-04T11:31:21.852Z,4.62
2023-12-04T11:33:55.405Z,4.75
2023-12-04T11:36:26.656Z,4.75
2023-12-04T11:38:58.243Z,4.75
2023-12-04T11:41:29.759Z,4.82
2023-12-04T11:44:01.503Z,4.84
2023-12-04T11:46:33.753Z,4.90
2023-12-04T11:49:34.521Z,4.94
2023-12-04T11:52:07.419Z,4.95
2023-12-04T11:55:05.794Z,4.99
2023-12-04T11:57:41.283Z,5.03
2023-12-04T12:00:18.624Z,5.05
2023-12-04T12:03:15.566Z,5.10
2023-12-04T12:05:48.279Z,5.13
2023-12-04T12:08:19.461Z,5.19
2023-12-04T12:10:50.376Z,5.22
2023-12-04T12:13:22.324Z,5.24
2023-12-04T12:15:53.385Z,5.20
2023-12-04T12:18:30.070Z,5.15
2023-12-04T12:21:04.071Z,5.08
2023-12-04T12:23:35.222Z,5.10
2023-12-04T12:26:06.389Z,5.07
2023-12-04T12:28:40.535Z,5.04
2023-12-04T12:31:12.129Z,4.95
2023-12-04T12:33:43.188Z,4.97
2023-12-04T12:36:20.740Z,4.92
2023-12-04T12:38:51.709Z,4.91
2023-12-04T12:41:23.370Z,4.87
2023-12-04T12:43:57.507Z,4.90
2023-12-04T12:46:28.356Z,4.88
2023-12-04T12:48:59.328Z,4.81
2023-12-04T12:51:33.861Z,4.71
2023-12-04T12:54:04.741Z,4.65
2023-12-04T12:56:36.561Z,4.58
2023-12-04T12:59:08.303Z,4.43
2023-12-04T13:01:39.346Z,4.39
2023-12-04T13:04:11.999Z,4.30
2023-12-04T13:06:45.891Z,4.20
2023-12-04T13:09:19.382Z,4.14
2023-12-04T13:11:50.813Z,4.06
2023-12-04T13:14:21.610Z,4.02
2023-12-04T13:16:53.176Z,3.95
2023-12-04T13:19:25.159Z,3.84
2023-12-04T13:21:59.703Z,3.88
2023-12-04T13:24:30.450Z,3.87
2023-12-04T13:27:01.319Z,3.83
2023-12-04T13:29:32.054Z,3.78
2023-12-04T13:32:03.663Z,3.73
2023-12-04T13:34:34.813Z,3.74
2023-12-04T13:37:08.898Z,3.69
2023-12-04T13:39:49.498Z,3.69
2023-12-04T13:42:33.392Z,3.67
2023-12-04T13:45:06.099Z,3.66
2023-12-04T13:47:38.412Z,3.63
2023-12-04T13:50:12.371Z,3.52
2023-12-04T13:52:46.391Z,3.58
2023-12-04T13:55:22.058Z,3.58
2023-12-04T13:58:11.245Z,3.56
2023-12-04T14:00:42.081Z,3.53
2023-12-04T14:03:13.211Z,3.51
2023-12-04T14:05:44.406Z,3.49
2023-12-04T14:08:18.259Z,3.47
2023-12-04T14:10:49.628Z,3.42
2023-12-04T14:13:22.000Z,3.35
2023-12-04T14:15:53.133Z,3.36
2023-12-04T14:18:24.971Z,3.31
2023-12-04T14:20:55.749Z,3.27
2023-12-04T14:23:29.724Z,3.22
2023-12-04T14:26:00.631Z,3.10
2023-12-04T14:28:40.059Z,2.97
2023-12-04T14:31:13.938Z,3.06
2023-12-04T14:33:45.342Z,3.01
2023-12-04T14:36:18.059Z,2.95
2023-12-04T14:38:51.513Z,2.79
2023-12-04T14:41:22.669Z,2.82
2023-12-04T14:43:53.531Z,2.76
2023-12-04T14:46:24.970Z,2.70
2023-12-04T14:48:56.210Z,2.64
2023-12-04T14:54:39.039Z,2.52
2023-12-04T14:57:46.038Z,2.44
2023-12-04T15:00:30.158Z,2.41
2023-12-04T15:03:17.679Z,2.30
2023-12-04T15:06:09.670Z,2.28
2023-12-04T15:08:53.014Z,2.29
2023-12-04T15:11:45.079Z,2.26
2023-12-04T15:14:31.600Z,2.06
2023-12-04T15:17:18.481Z,2.24
2023-12-04T15:20:04.425Z,2.19
2023-12-04T15:22:37.053Z,2.15
2023-12-04T15:25:08.355Z,2.19
2023-12-04T15:27:42.699Z,2.16
2023-12-04T15:30:14.087Z,2.11
2023-12-04T15:32:45.694Z,2.02
2023-12-04T15:35:17.688Z,1.90
2023-12-04T15:37:48.518Z,1.64
2023-12-04T15:40:19.717Z,1.15
2023-12-04T15:42:50.786Z,0.82
2023-12-04T15:45:22.355Z,0.44
2023-12-04T15:47:53.973Z,0.23
2023-12-04T15:50:24.134Z,0.21
2023-12-04T15:52:54.933Z,0.26
2023-12-04T15:55:24.638Z,0.30
2023-12-04T15:57:58.902Z,0.30
2023-12-04T16:00:27.914Z,0.29
2023-12-04T16:02:59.041Z,0.21
2023-12-04T16:05:30.245Z,0.28
2023-12-04T16:08:01.738Z,0.42
2023-12-04T16:10:33.089Z,0.42
2023-12-04T16:13:06.748Z,0.50
2023-12-04T16:15:37.717Z,0.57
2023-12-04T16:18:10.456Z,0.60
2023-12-04T16:20:42.526Z,0.51
2023-12-04T16:23:13.768Z,0.52
2023-12-04T16:25:44.731Z,0.37
2023-12-04T16:28:18.672Z,0.25
2023-12-04T16:30:49.928Z,0.08
2023-12-04T16:33:20.905Z,0.05
2023-12-04T16:35:52.105Z,0.20
2023-12-04T16:38:23.548Z,0.23
2023-12-04T16:40:54.465Z,0.22
2023-12-04T16:43:27.992Z,0.06
2023-12-04T16:46:01.143Z,0.13
2023-12-04T16:48:33.414Z,0.25
2023-12-04T16:51:06.858Z,-0.05
2023-12-04T16:53:37.701Z,-0.60
2023-12-04T16:56:16.516Z,-1.06
2023-12-04T16:58:50.803Z,-1.39
2023-12-04T17:01:21.835Z,-1.57
2023-12-04T17:03:52.913Z,-1.80
2023-12-04T17:06:24.121Z,-1.72
2023-12-04T17:08:55.314Z,-1.75
2023-12-04T17:11:26.679Z,-1.72
2023-12-04T17:14:00.368Z,-1.51
2023-12-04T17:16:31.540Z,-1.40
2023-12-04T17:19:02.740Z,-1.29
2023-12-04T17:21:33.759Z,-1.25
2023-12-04T17:24:06.085Z,-1.35
2023-12-04T17:26:37.229Z,-1.43
2023-12-04T17:29:14.323Z,-1.50
2023-12-04T17:31:46.860Z,-1.74
2023-12-04T17:34:18.157Z,-1.68
2023-12-04T17:36:50.026Z,-1.71
2023-12-04T17:39:21.435Z,-1.64
2023-12-04T17:41:52.554Z,-1.47
2023-12-04T17:44:26.460Z,-1.29
2023-12-04T17:46:57.788Z,-1.10
2023-12-04T17:49:28.902Z,-1.00
2023-12-04T17:52:00.272Z,-0.73
2023-12-04T17:54:31.553Z,-0.58
2023-12-04T17:57:02.988Z,-0.48
2023-12-04T17:59:37.413Z,-0.41
2023-12-04T18:02:09.159Z,-0.18
2023-12-04T18:04:40.946Z,-0.09
2023-12-04T18:07:13.395Z,-0.12
2023-12-04T18:09:44.830Z,-0.05
2023-12-04T18:12:16.209Z,0.12
2023-12-04T18:14:52.134Z,0.18
2023-12-04T18:17:23.332Z,0.02
2023-12-04T18:19:56.282Z,0.04
2023-12-04T18:22:27.345Z,-0.05
2023-12-04T18:25:00.526Z,-0.26
2023-12-04T18:27:33.067Z,-0.35
2023-12-04T18:30:09.487Z,-0.49
2023-12-04T18:32:41.778Z,-0.61
2023-12-04T18:35:16.220Z,-0.88
2023-12-04T18:37:53.944Z,-0.91
2023-12-04T18:40:26.978Z,-0.89
2023-12-04T18:43:00.687Z,-0.95
2023-12-04T18:45:35.345Z,-1.07
2023-12-04T18:48:09.519Z,-1.16
2023-12-04T18:50:42.497Z,-1.35
2023-12-04T18:53:18.343Z,-1.51
2023-12-04T18:55:49.356Z,-1.32
2023-12-04T18:58:20.263Z,-1.39
2023-12-04T19:00:54.211Z,-1.57
2023-12-04T19:03:25.737Z,-1.69
2023-12-04T19:05:57.803Z,-1.84
2023-12-04T19:08:29.378Z,-1.75
2023-12-04T19:11:00.632Z,-1.69
2023-12-04T19:13:32.609Z,-1.71
2023-12-04T19:16:06.976Z,-1.94
2023-12-04T19:18:39.573Z,-1.88
2023-12-04T19:21:11.275Z,-2.03
2023-12-04T19:23:43.081Z,-2.02
2023-12-04T19:26:16.414Z,-1.84
2023-12-04T19:28:47.380Z,-2.05
2023-12-04T19:31:35.892Z,-2.36
2023-12-04T19:34:07.539Z,-2.77
2023-12-04T19:36:43.155Z,-3.25
2023-12-04T19:39:14.337Z,-3.57
2023-12-04T19:41:46.471Z,-3.81
2023-12-04T19:44:17.624Z,-3.85
2023-12-04T19:46:51.169Z,-3.96
2023-12-04T19:49:22.167Z,-3.78
2023-12-04T19:51:53.475Z,-3.84
2023-12-04T19:54:24.578Z,-3.62
2023-12-04T19:56:56.353Z,-3.52
2023-12-04T19:59:32.737Z,-3.70
2023-12-04T20:02:15.377Z,-3.65
2023-12-04T20:07:32.797Z,-4.08
2023-12-04T20:10:08.648Z,-4.03
2023-12-04T20:12:42.881Z,-4.08
2023-12-04T20:15:15.669Z,-4.22
2023-12-04T20:17:54.442Z,-3.98
2023-12-04T20:20:27.180Z,-3.71
2023-12-04T20:22:58.756Z,-3.51
2023-12-04T20:25:30.652Z,-3.43
2023-12-04T20:28:05.311Z,-3.09
2023-12-04T20:30:39.416Z,-2.84
2023-12-04T20:33:14.963Z,-2.63
2023-12-04T20:35:45.608Z,-2.53
2023-12-04T20:38:17.341Z,-2.71
2023-12-04T20:40:50.331Z,-2.57
2023-12-04T20:43:23.844Z,-2.75
2023-12-04T20:45:55.032Z,-2.84
2023-12-04T20:48:28.942Z,-3.00
2023-12-04T20:50:59.958Z,-3.07
2023-12-04T20:53:31.862Z,-2.95
2023-12-04T20:56:03.208Z,-2.97
2023-12-04T20:58:36.318Z,-2.91
2023-12-04T21:01:07.675Z,-3.06
2023-12-04T21:03:41.225Z,-3.14
2023-12-04T21:06:14.416Z,-3.15
2023-12-04T21:08:46.521Z,-3.21
2023-12-04T21:11:17.586Z,-3.29
2023-12-04T21:13:48.658Z,-3.24
2023-12-04T21:16:20.060Z,-3.10
2023-12-04T21:18:53.691Z,-3.17
2023-12-04T21:21:24.936Z,-3.16
2023-12-04T21:23:55.839Z,-3.37
2023-12-04T21:26:26.703Z,-3.29
2023-12-04T21:28:58.674Z,-3.24
2023-12-04T21:31:31.300Z,-3.28
2023-12-04T21:34:04.910Z,-3.09
2023-12-04T21:36:36.441Z,-3.25
2023-12-04T21:39:07.743Z,-3.76
2023-12-04T21:41:39.428Z,-3.99
2023-12-04T21:44:10.570Z,-3.79
2023-12-04T21:46:41.607Z,-3.56
2023-12-04T21:49:15.586Z,-3.39
2023-12-04T21:51:46.546Z,-3.33
2023-12-04T21:54:17.714Z,-3.28
2023-12-04T21:56:48.600Z,-3.39
2023-12-04T21:59:27.133Z,-3.33
2023-12-04T22:02:01.444Z,-3.35
2023-12-04T22:04:35.140Z,-3.45
2023-12-04T22:07:06.433Z,-3.52
2023-12-04T22:09:37.593Z,-3.64
2023-12-04T22:12:09.578Z,-3.56
2023-12-04T22:14:40.494Z,-3.61
2023-12-04T22:17:11.341Z,-3.63
2023-12-04T22:19:45.777Z,-3.56
2023-12-04T22:22:17.149Z,-3.72
2023-12-04T22:24:47.961Z,-3.60
2023-12-04T22:27:19.040Z,-3.63
2023-12-04T22:29:50.027Z,-3.74
2023-12-04T22:32:20.742Z,-3.73
2023-12-04T22:34:54.487Z,-3.63
2023-12-04T22:37:25.471Z,-3.74
2023-12-04T22:39:56.945Z,-3.88
2023-12-04T22:42:28.604Z,-3.69
2023-12-04T22:44:59.414Z,-3.82
2023-12-04T22:47:30.333Z,-3.73
2023-12-04T22:50:03.897Z,-3.90
2023-12-04T22:52:35.288Z,-3.71
2023-12-04T22:55:09.162Z,-3.79
2023-12-04T22:57:40.267Z,-3.73
2023-12-04T23:00:13.435Z,-3.78
2023-12-04T23:02:44.307Z,-3.72
2023-12-04T23:05:18.074Z,-3.73
2023-12-04T23:07:49.951Z,-3.75
2023-12-04T23:10:21.954Z,-3.81
2023-12-04T23:12:58.053Z,-3.78
2023-12-04T23:15:29.267Z,-3.84
2023-12-04T23:18:00.076Z,-3.79
2023-12-04T23:20:33.875Z,-3.88
2023-12-04T23:23:04.836Z,-3.93
2023-12-04T23:25:36.148Z,-3.87
2023-12-04T23:28:07.429Z,-3.91
2023-12-04T23:30:44.374Z,-3.87
2023-12-04T23:33:15.364Z,-3.96
2023-12-04T23:35:49.104Z,-3.89
2023-12-04T23:38:19.917Z,-3.94
2023-12-04T23:40:51.234Z,-3.87
2023-12-04T23:43:22.034Z,-3.92
2023-12-04T23:45:56.298Z,-3.88
2023-12-04T23:48:28.212Z,-3.94
2023-12-04T23:51:01.743Z,-4.00
2023-12-04T23:53:32.585Z,-3.97
2023-12-04T23:56:03.367Z,-4.00
2023-12-04T23:58:34.520Z,-3.95
